Time;durP1;ratioP1;P1;durP2;ratioP2;P2;SDS_P1;SDS_P2;PMS_P1;PMS_P2;Temp;Humidity;BMP_temperature;BMP_pressure;BME280_temperature;BME280_humidity;BME280_pressure;Samples;Min_cycle;Max_cycle;Signal;HPM_P1;HPM_P2
2022/09/20 00:01:07;;;;;;;;;4.00;2.25;;;;;;;;5042853;28;10698;-81
2022/09/20 00:03:35;;;;;;;;;1.75;1.75;;;;;;;;5040869;28;10669;-80
2022/09/20 00:06:05;;;;;;;;;3.25;2.00;;;;;;;;5042472;28;10713;-82
2022/09/20 00:08:33;;;;;;;;;2.50;1.00;;;;;;;;5044383;28;10796;-82
2022/09/20 00:11:01;;;;;;;;;2.75;1.00;;;;;;;;5025903;28;10756;-81
2022/09/20 00:13:29;;;;;;;;;0.50;0.50;;;;;;;;5044625;28;10755;-81
2022/09/20 00:15:57;;;;;;;;;2.00;2.00;;;;;;;;5041966;28;10822;-80
2022/09/20 00:18:26;;;;;;;;;4.00;3.00;;;;;;;;5043199;28;11504;-82
2022/09/20 00:20:53;;;;;;;;;2.75;2.75;;;;;;;;5043468;28;11035;-83
2022/09/20 00:23:22;;;;;;;;;3.00;3.00;;;;;;;;5027711;28;11094;-82
2022/09/20 00:25:56;;;;;;;;;3.25;3.25;;;;;;;;5041996;28;11857;-83
2022/09/20 00:28:24;;;;;;;;;3.75;3.75;;;;;;;;5023813;28;11149;-83
2022/09/20 00:30:52;;;;;;;;;2.00;2.00;;;;;;;;5042321;28;11036;-83
2022/09/20 00:33:20;;;;;;;;;2.75;2.75;;;;;;;;5041532;28;11096;-83
2022/09/20 00:35:46;;;;;;;;;4.00;4.00;;;;;;;;5025884;28;10971;-82
2022/09/20 00:38:13;;;;;;;;;3.00;3.00;;;;;;;;5024858;28;10976;-81
2022/09/20 00:40:44;;;;;;;;;4.00;4.00;;;;;;;;5041222;28;10960;-81
2022/09/20 00:43:14;;;;;;;;;5.50;3.75;;;;;;;;5042332;28;11421;-82
2022/09/20 00:45:44;;;;;;;;;3.00;3.00;;;;;;;;5041419;28;10920;-82
2022/09/20 00:48:15;;;;;;;;;2.50;2.25;;;;;;;;5042904;28;11674;-83
2022/09/20 00:50:44;;;;;;;;;3.00;3.00;;;;;;;;5041916;28;10823;-82
2022/09/20 00:53:14;;;;;;;;;2.50;2.00;;;;;;;;5041433;28;10950;-81
2022/09/20 00:55:45;;;;;;;;;2.00;2.00;;;;;;;;5041785;28;10818;-82
2022/09/20 00:58:13;;;;;;;;;2.25;2.25;;;;;;;;5041921;28;10862;-81
2022/09/20 01:00:41;;;;;;;;;5.75;2.00;;;;;;;;5037075;28;10906;-81
2022/09/20 01:03:09;;;;;;;;;2.50;2.00;;;;;;;;5021451;28;11013;-81
2022/09/20 01:05:38;;;;;;;;;0.00;0.00;;;;;;;;5022857;28;10905;-81
2022/09/20 01:08:06;;;;;;;;;2.00;2.00;;;;;;;;5022174;28;11028;-81
2022/09/20 01:10:34;;;;;;;;;4.00;2.00;;;;;;;;5008632;28;11134;-80
2022/09/20 01:13:04;;;;;;;;;1.25;1.25;;;;;;;;5025449;28;10997;-80
2022/09/20 01:15:35;;;;;;;;;3.00;1.25;;;;;;;;5026707;28;11096;-81
2022/09/20 01:18:03;;;;;;;;;2.00;2.00;;;;;;;;5010876;28;11164;-81
2022/09/20 01:20:32;;;;;;;;;2.00;2.00;;;;;;;;5026853;28;11242;-82
2022/09/20 01:23:22;;;;;;;;;2.00;2.00;;;;;;;;5009190;28;11452;-80
2022/09/20 01:26:27;;;;;;;;;2.00;2.00;;;;;;;;5026108;28;11277;-81
2022/09/20 01:29:05;;;;;;;;;1.25;1.25;;;;;;;;5014103;28;11434;-80
2022/09/20 01:31:35;;;;;;;;;2.50;2.00;;;;;;;;5024792;28;11393;-81
2022/09/20 01:34:05;;;;;;;;;3.00;3.00;;;;;;;;5023068;28;11415;-80
2022/09/20 01:36:37;;;;;;;;;5.00;3.00;;;;;;;;5025711;28;11409;-81
2022/09/20 01:39:10;;;;;;;;;2.00;2.00;;;;;;;;5020599;28;11416;-82
2022/09/20 01:41:43;;;;;;;;;1.00;1.00;;;;;;;;5024334;28;11483;-81
2022/09/20 01:44:17;;;;;;;;;3.00;1.75;;;;;;;;5007979;28;11474;-81
2022/09/20 01:46:44;;;;;;;;;3.25;3.25;;;;;;;;5023561;28;11455;-80
2022/09/20 01:49:25;;;;;;;;;3.00;3.00;;;;;;;;5025126;28;12246;-81
2022/09/20 01:52:21;;;;;;;;;2.75;2.75;;;;;;;;5024463;28;11416;-80
2022/09/20 01:55:19;;;;;;;;;2.00;2.00;;;;;;;;5024091;28;11472;-81
2022/09/20 01:58:28;;;;;;;;;1.25;1.25;;;;;;;;4973079;28;11451;-81
2022/09/20 02:01:21;;;;;;;;;2.75;2.75;;;;;;;;4999103;28;11383;-81
2022/09/20 02:04:11;;;;;;;;;3.75;2.00;;;;;;;;4960848;28;12271;-81
2022/09/20 02:06:51;;;;;;;;;3.00;2.00;;;;;;;;4981575;28;11574;-83
2022/09/20 02:09:53;;;;;;;;;3.00;3.00;;;;;;;;5001501;28;11483;-81
2022/09/20 02:12:39;;;;;;;;;3.00;1.50;;;;;;;;5003546;28;11426;-81
2022/09/20 02:15:15;;;;;;;;;3.50;2.75;;;;;;;;4998646;28;12259;-81
2022/09/20 02:17:53;;;;;;;;;2.75;2.75;;;;;;;;5002922;28;11455;-82
2022/09/20 02:20:37;;;;;;;;;1.50;1.50;;;;;;;;5011575;28;11588;-81
2022/09/20 02:23:16;;;;;;;;;2.00;2.00;;;;;;;;5003627;28;11462;-81
2022/09/20 02:26:06;;;;;;;;;4.00;2.25;;;;;;;;5024145;28;12243;-82
2022/09/20 02:28:51;;;;;;;;;2.00;2.00;;;;;;;;5024332;28;11489;-83
2022/09/20 02:31:28;;;;;;;;;2.00;2.00;;;;;;;;5017017;28;11438;-82
2022/09/20 02:34:19;;;;;;;;;3.00;3.00;;;;;;;;5023316;28;11268;-82
2022/09/20 02:36:56;;;;;;;;;2.00;2.00;;;;;;;;5003373;28;11490;-83
2022/09/20 02:39:32;;;;;;;;;2.00;2.00;;;;;;;;5022769;28;11491;-83
2022/09/20 02:42:04;;;;;;;;;1.00;1.00;;;;;;;;5021090;28;11462;-82
2022/09/20 02:44:49;;;;;;;;;1.00;1.00;;;;;;;;5024512;28;11152;-82
2022/09/20 02:47:23;;;;;;;;;2.00;2.00;;;;;;;;5036837;28;11445;-83
2022/09/20 02:50:04;;;;;;;;;1.00;1.00;;;;;;;;4991697;28;11465;-81
2022/09/20 02:52:36;;;;;;;;;0.50;0.50;;;;;;;;5023180;28;11431;-82
2022/09/20 02:55:07;;;;;;;;;1.50;1.50;;;;;;;;5004634;28;11087;-82
2022/09/20 02:57:43;;;;;;;;;1.00;1.00;;;;;;;;5023530;28;11431;-82
2022/09/20 03:00:13;;;;;;;;;2.00;2.00;;;;;;;;5021170;28;11252;-81
2022/09/20 03:02:50;;;;;;;;;0.00;0.00;;;;;;;;5024130;28;11429;-81
2022/09/20 03:05:24;;;;;;;;;1.75;1.75;;;;;;;;5014138;28;11266;-83
2022/09/20 03:08:04;;;;;;;;;1.00;1.00;;;;;;;;5005482;28;11215;-83
2022/09/20 03:10:37;;;;;;;;;0.00;0.00;;;;;;;;5016581;28;11106;-81
2022/09/20 03:13:14;;;;;;;;;1.00;1.00;;;;;;;;5022421;28;11120;-82
2022/09/20 03:15:52;;;;;;;;;1.00;1.00;;;;;;;;5024522;28;11533;-83
2022/09/20 03:18:29;;;;;;;;;1.00;1.00;;;;;;;;5012977;28;11427;-81
2022/09/20 03:21:05;;;;;;;;;0.00;0.00;;;;;;;;5023546;28;11410;-82
2022/09/20 03:23:47;;;;;;;;;2.75;1.50;;;;;;;;5005832;28;11377;-80
2022/09/20 03:26:24;;;;;;;;;2.00;2.00;;;;;;;;5023332;28;12191;-82
2022/09/20 03:29:00;;;;;;;;;1.00;1.00;;;;;;;;5024330;28;11398;-81
2022/09/20 03:31:44;;;;;;;;;1.25;1.25;;;;;;;;5013511;28;11441;-81
2022/09/20 03:34:23;;;;;;;;;2.25;2.00;;;;;;;;5021361;28;11492;-82
2022/09/20 03:37:03;;;;;;;;;1.50;1.50;;;;;;;;5023503;28;12235;-81
2022/09/20 03:39:45;;;;;;;;;2.00;2.00;;;;;;;;5016584;28;11467;-82
2022/09/20 03:42:16;;;;;;;;;1.00;1.00;;;;;;;;5019408;28;11539;-81
2022/09/20 03:45:02;;;;;;;;;1.00;1.00;;;;;;;;5022693;28;11470;-81
2022/09/20 03:47:44;;;;;;;;;1.25;1.25;;;;;;;;5011426;28;11512;-82
2022/09/20 03:50:35;;;;;;;;;1.00;1.00;;;;;;;;5022803;28;11650;-82
2022/09/20 03:53:32;;;;;;;;;2.00;2.00;;;;;;;;5022057;28;11470;-81
2022/09/20 03:56:12;;;;;;;;;0.50;0.50;;;;;;;;5016737;28;11513;-81
2022/09/20 03:58:53;;;;;;;;;1.75;1.75;;;;;;;;5022655;28;11511;-81
2022/09/20 04:01:51;;;;;;;;;2.00;2.00;;;;;;;;5021115;28;11564;-82
2022/09/20 04:04:27;;;;;;;;;1.00;1.00;;;;;;;;5021729;28;11495;-82
2022/09/20 04:07:12;;;;;;;;;2.75;1.75;;;;;;;;5018355;28;11462;-81
2022/09/20 04:10:23;;;;;;;;;1.50;1.50;;;;;;;;5020721;28;11536;-83
2022/09/20 04:13:00;;;;;;;;;2.00;2.00;;;;;;;;5015839;28;11476;-81
2022/09/20 04:15:36;;;;;;;;;3.00;1.00;;;;;;;;5023153;28;11473;-82
2022/09/20 04:18:09;;;;;;;;;2.25;2.25;;;;;;;;5019450;28;11538;-81
2022/09/20 04:20:43;;;;;;;;;3.25;2.00;;;;;;;;5004986;28;11472;-81
2022/09/20 04:23:18;;;;;;;;;1.00;1.00;;;;;;;;4992204;28;11608;-82
2022/09/20 04:25:48;;;;;;;;;2.00;2.00;;;;;;;;5003058;28;11478;-81
2022/09/20 04:28:22;;;;;;;;;2.00;2.00;;;;;;;;4994664;28;11517;-81
2022/09/20 04:30:55;;;;;;;;;3.50;3.50;;;;;;;;5001054;28;11460;-81
2022/09/20 04:33:27;;;;;;;;;1.25;1.25;;;;;;;;5004248;28;12412;-81
2022/09/20 04:38:51;;;;;;;;;3.00;3.00;;;;;;;;5004110;28;11468;-81
2022/09/20 04:41:33;;;;;;;;;2.50;2.50;;;;;;;;5003737;28;11156;-81
2022/09/20 04:44:40;;;;;;;;;4.00;3.00;;;;;;;;5003202;28;11570;-82
2022/09/20 04:47:38;;;;;;;;;6.00;3.00;;;;;;;;4999937;28;11484;-81
2022/09/20 04:50:44;;;;;;;;;3.75;3.75;;;;;;;;5005380;28;11459;-82
2022/09/20 04:53:37;;;;;;;;;2.25;2.25;;;;;;;;4990480;28;11497;-82
2022/09/20 04:56:13;;;;;;;;;3.00;3.00;;;;;;;;5000661;28;11500;-80
2022/09/20 04:58:48;;;;;;;;;3.00;3.00;;;;;;;;5000484;28;11386;-80
2022/09/20 05:01:41;;;;;;;;;3.25;3.25;;;;;;;;5005250;28;11089;-79
2022/09/20 05:04:43;;;;;;;;;3.50;3.50;;;;;;;;4998901;28;11233;-84
2022/09/20 05:07:41;;;;;;;;;4.00;4.00;;;;;;;;4998802;28;11248;-81
2022/09/20 05:10:31;;;;;;;;;6.75;4.00;;;;;;;;5012552;28;11281;-82
2022/09/20 05:13:12;;;;;;;;;3.00;3.00;;;;;;;;5002786;28;11538;-81
2022/09/20 05:15:48;;;;;;;;;7.00;4.00;;;;;;;;5003448;28;10996;-81
2022/09/20 05:18:47;;;;;;;;;3.00;3.00;;;;;;;;5002444;28;11146;-81
2022/09/20 05:21:29;;;;;;;;;3.00;3.00;;;;;;;;5011311;28;10840;-80
2022/09/20 05:24:07;;;;;;;;;4.50;3.00;;;;;;;;5041826;28;10715;-76
2022/09/20 05:26:45;;;;;;;;;5.00;5.00;;;;;;;;5038954;28;10851;-76
2022/09/20 05:29:17;;;;;;;;;2.75;2.75;;;;;;;;5043914;28;11018;-76
2022/09/20 05:31:52;;;;;;;;;3.25;3.25;;;;;;;;5039452;28;10775;-76
2022/09/20 05:34:24;;;;;;;;;3.25;3.25;;;;;;;;5043657;28;10686;-77
2022/09/20 05:36:58;;;;;;;;;2.50;2.50;;;;;;;;5044222;28;10685;-75
2022/09/20 05:39:34;;;;;;;;;5.50;3.75;;;;;;;;5045317;28;10697;-79
2022/09/20 05:42:13;;;;;;;;;8.75;3.25;;;;;;;;5044625;28;11471;-76
2022/09/20 05:44:56;;;;;;;;;4.00;3.50;;;;;;;;5043888;28;10712;-78
2022/09/20 05:47:35;;;;;;;;;3.50;3.50;;;;;;;;5039403;28;11463;-83
2022/09/20 05:50:16;;;;;;;;;6.50;3.00;;;;;;;;5043572;28;11168;-78
2022/09/20 05:52:51;;;;;;;;;5.00;3.25;;;;;;;;5045741;28;11380;-86
2022/09/20 05:55:35;;;;;;;;;7.75;5.00;;;;;;;;5043551;28;10621;-84
2022/09/20 05:58:38;;;;;;;;;3.50;3.50;;;;;;;;5044865;28;10813;-84
2022/09/20 06:01:12;;;;;;;;;2.50;2.50;;;;;;;;5042005;28;10637;-82
2022/09/20 06:03:44;;;;;;;;;8.00;8.00;;;;;;;;5027974;28;11031;-85
2022/09/20 06:06:24;;;;;;;;;12.25;12.25;;;;;;;;5027500;28;12211;-83
2022/09/20 06:09:17;;;;;;;;;15.25;13.25;;;;;;;;5043396;28;11568;-86
2022/09/20 06:11:57;;;;;;;;;9.75;9.75;;;;;;;;5039671;28;11164;-85
2022/09/20 06:14:38;;;;;;;;;8.25;8.25;;;;;;;;5045568;28;10981;-84
2022/09/20 06:17:14;;;;;;;;;4.25;4.25;;;;;;;;5042782;28;10827;-82
2022/09/20 06:19:46;;;;;;;;;7.50;5.00;;;;;;;;5044205;28;10785;-85
2022/09/20 06:22:18;;;;;;;;;4.25;4.25;;;;;;;;5045397;28;11329;-85
2022/09/20 06:24:49;;;;;;;;;7.75;5.50;;;;;;;;5044361;28;10536;-84
2022/09/20 06:27:20;;;;;;;;;4.00;4.00;;;;;;;;5043512;28;10680;-84
2022/09/20 06:29:51;;;;;;;;;5.00;5.00;;;;;;;;5043913;28;10598;-84
2022/09/20 06:32:19;;;;;;;;;5.00;5.00;;;;;;;;5042635;28;11051;-83
2022/09/20 06:34:48;;;;;;;;;4.00;4.00;;;;;;;;5043816;28;10338;-83
2022/09/20 06:43:13;;;;;;;;;4.00;4.00;;;;;;;;5042653;28;11576;-73
2022/09/20 06:45:41;;;;;;;;;6.00;4.50;;;;;;;;5041372;28;10471;-73
2022/09/20 06:48:12;;;;;;;;;5.25;5.25;;;;;;;;5042249;28;10308;-73
2022/09/20 06:50:42;;;;;;;;;3.50;3.50;;;;;;;;5041708;28;10622;-73
2022/09/20 06:53:13;;;;;;;;;2.00;2.00;;;;;;;;5041867;28;10443;-74
2022/09/20 06:55:43;;;;;;;;;4.00;4.00;;;;;;;;5038358;28;10314;-74
2022/09/20 06:58:11;;;;;;;;;3.25;3.25;;;;;;;;5041569;28;10372;-74
2022/09/20 07:00:39;;;;;;;;;2.75;2.75;;;;;;;;5008024;28;10142;-74
2022/09/20 07:03:07;;;;;;;;;3.25;3.25;;;;;;;;5042953;28;10304;-72
2022/09/20 07:05:35;;;;;;;;;7.00;3.75;;;;;;;;5041774;28;10477;-73
2022/09/20 07:08:04;;;;;;;;;5.00;5.00;;;;;;;;5020600;28;10378;-72
2022/09/20 07:10:32;;;;;;;;;3.50;2.00;;;;;;;;5042290;28;11227;-74
2022/09/20 07:13:01;;;;;;;;;1.25;1.25;;;;;;;;5045017;28;10375;-73
2022/09/20 07:15:29;;;;;;;;;5.00;5.00;;;;;;;;5040703;28;10425;-74
2022/09/20 07:17:56;;;;;;;;;3.25;3.25;;;;;;;;5042965;28;10307;-74
2022/09/20 07:20:24;;;;;;;;;4.75;4.75;;;;;;;;5041390;28;10378;-74
2022/09/20 07:22:52;;;;;;;;;5.00;5.00;;;;;;;;5043242;28;10523;-73
2022/09/20 07:25:21;;;;;;;;;3.75;3.75;;;;;;;;5042024;28;10513;-74
2022/09/20 07:27:50;;;;;;;;;5.00;5.00;;;;;;;;5044875;28;10392;-75
2022/09/20 07:30:18;;;;;;;;;3.00;3.00;;;;;;;;5040031;28;10896;-73
2022/09/20 07:32:46;;;;;;;;;5.00;4.00;;;;;;;;5022811;28;10506;-74
2022/09/20 07:35:13;;;;;;;;;3.75;3.00;;;;;;;;5023044;28;10462;-74
2022/09/20 07:37:41;;;;;;;;;3.75;3.75;;;;;;;;5023172;28;10507;-74
2022/09/20 07:40:10;;;;;;;;;5.75;5.75;;;;;;;;5023636;28;10282;-74
2022/09/20 07:42:39;;;;;;;;;4.25;2.75;;;;;;;;5022400;28;10355;-74
2022/09/20 07:45:07;;;;;;;;;3.25;3.25;;;;;;;;5022593;28;10313;-74
2022/09/20 07:47:35;;;;;;;;;5.00;5.00;;;;;;;;5023652;28;10141;-73
2022/09/20 07:50:03;;;;;;;;;3.75;3.75;;;;;;;;5022066;28;10055;-74
2022/09/20 07:52:31;;;;;;;;;2.25;2.25;;;;;;;;5022915;28;9930;-73
2022/09/20 07:54:58;;;;;;;;;7.00;4.00;;;;;;;;5021885;28;9967;-74
2022/09/20 07:57:25;;;;;;;;;5.00;5.00;;;;;;;;5022903;28;9989;-72
2022/09/20 07:59:54;;;;;;;;;9.50;4.75;;;;;;;;5021875;28;10686;-72
2022/09/20 08:02:21;;;;;;;;;6.50;4.50;;;;;;;;5021441;28;9932;-73
2022/09/20 08:04:48;;;;;;;;;4.00;4.00;;;;;;;;5022372;28;9915;-72
2022/09/20 08:07:16;;;;;;;;;7.50;7.50;;;;;;;;5022755;28;9826;-72
2022/09/20 08:09:43;;;;;;;;;8.00;4.25;;;;;;;;5033310;28;9918;-73
2022/09/20 08:12:13;;;;;;;;;4.75;4.75;;;;;;;;5022484;28;10134;-76
2022/09/20 08:14:40;;;;;;;;;4.00;4.00;;;;;;;;5022746;28;9735;-73
2022/09/20 08:17:11;;;;;;;;;8.00;5.50;;;;;;;;5021388;28;10018;-73
2022/09/20 08:19:39;;;;;;;;;3.00;3.00;;;;;;;;5022026;28;9749;-73
2022/09/20 08:22:07;;;;;;;;;3.75;3.75;;;;;;;;5025707;28;10536;-73
2022/09/20 08:24:34;;;;;;;;;5.00;5.00;;;;;;;;5027412;28;10436;-73
2022/09/20 08:27:02;;;;;;;;;6.00;6.00;;;;;;;;5026762;28;9541;-73
2022/09/20 08:29:30;;;;;;;;;5.25;5.25;;;;;;;;5015705;28;9642;-73
2022/09/20 08:31:59;;;;;;;;;4.00;4.00;;;;;;;;5010975;28;9626;-74
2022/09/20 08:34:29;;;;;;;;;4.50;4.50;;;;;;;;5005583;28;9821;-74
2022/09/20 08:36:57;;;;;;;;;4.75;4.75;;;;;;;;5007574;28;10391;-74
2022/09/20 08:39:25;;;;;;;;;4.50;4.50;;;;;;;;5006191;28;9492;-74
2022/09/20 08:41:55;;;;;;;;;4.00;4.00;;;;;;;;5006857;28;9597;-74
2022/09/20 08:44:26;;;;;;;;;5.67;5.00;;;;;;;;5006840;28;9274;-74
2022/09/20 08:47:06;;;;;;;;;3.00;3.00;;;;;;;;5004942;28;9207;-74
2022/09/20 08:49:35;;;;;;;;;4.00;2.00;;;;;;;;5008137;28;9101;-75
2022/09/20 08:52:04;;;;;;;;;3.00;3.00;;;;;;;;5008773;28;9137;-74
2022/09/20 08:54:33;;;;;;;;;3.00;3.00;;;;;;;;5007031;28;9757;-75
2022/09/20 08:57:05;;;;;;;;;6.25;3.25;;;;;;;;5006162;28;8965;-74
2022/09/20 08:59:33;;;;;;;;;3.50;3.00;;;;;;;;5006550;28;8853;-75
2022/09/20 09:02:01;;;;;;;;;3.25;3.25;;;;;;;;4996006;28;8891;-74
2022/09/20 09:04:37;;;;;;;;;5.00;3.25;;;;;;;;5005652;28;8907;-74
2022/09/20 09:07:06;;;;;;;;;5.25;5.00;;;;;;;;5007260;28;9716;-74
2022/09/20 09:09:40;;;;;;;;;2.25;2.25;;;;;;;;5007161;28;8899;-75
2022/09/20 09:12:14;;;;;;;;;3.75;2.00;;;;;;;;5006945;28;8872;-74
2022/09/20 09:14:48;;;;;;;;;1.00;1.00;;;;;;;;5006334;28;8876;-75
2022/09/20 09:17:17;;;;;;;;;2.00;2.00;;;;;;;;5005539;28;9018;-74
2022/09/20 09:19:47;;;;;;;;;1.50;1.50;;;;;;;;5025388;28;8852;-75
2022/09/20 09:22:25;;;;;;;;;2.00;2.00;;;;;;;;5044795;28;8871;-74
2022/09/20 09:25:22;;;;;;;;;2.50;2.50;;;;;;;;5019338;28;8867;-75
2022/09/20 09:27:55;;;;;;;;;3.00;3.00;;;;;;;;5045752;28;8871;-74
2022/09/20 09:30:26;;;;;;;;;2.00;2.00;;;;;;;;5043913;28;8820;-74
2022/09/20 09:32:57;;;;;;;;;1.75;1.75;;;;;;;;5045724;28;8864;-75
2022/09/20 09:35:30;;;;;;;;;2.00;2.00;;;;;;;;5041988;28;8872;-75
2022/09/20 09:37:59;;;;;;;;;2.25;2.25;;;;;;;;5046579;28;8896;-75
2022/09/20 09:40:28;;;;;;;;;1.00;1.00;;;;;;;;5034598;28;8884;-75
2022/09/20 09:42:57;;;;;;;;;1.00;1.00;;;;;;;;5045250;28;8876;-74
2022/09/20 09:45:34;;;;;;;;;2.00;2.00;;;;;;;;5045811;28;8835;-74
2022/09/20 09:48:03;;;;;;;;;1.00;1.00;;;;;;;;5044331;28;8871;-74
2022/09/20 09:50:34;;;;;;;;;0.75;0.75;;;;;;;;5045745;28;8871;-74
2022/09/20 09:53:06;;;;;;;;;1.00;1.00;;;;;;;;5045146;28;8859;-75
2022/09/20 09:55:57;;;;;;;;;2.75;2.75;;;;;;;;5042945;28;8872;-74
2022/09/20 09:58:37;;;;;;;;;1.00;1.00;;;;;;;;5027668;28;8847;-74
2022/09/20 10:01:10;;;;;;;;;2.25;1.00;;;;;;;;5042353;28;8808;-75
2022/09/20 10:03:52;;;;;;;;;2.50;1.25;;;;;;;;5033997;28;8878;-75
2022/09/20 10:06:25;;;;;;;;;1.00;1.00;;;;;;;;5042361;28;8861;-74
2022/09/20 10:09:03;;;;;;;;;3.00;0.00;;;;;;;;5045453;28;8898;-75
2022/09/20 10:11:43;;;;;;;;;2.00;0.75;;;;;;;;5045395;28;8882;-74
2022/09/20 10:14:23;;;;;;;;;1.00;1.00;;;;;;;;5043856;28;9023;-75
2022/09/20 10:17:09;;;;;;;;;0.00;0.00;;;;;;;;5045075;28;8867;-74
2022/09/20 10:19:47;;;;;;;;;0.80;0.80;;;;;;;;5036369;28;8884;-75
2022/09/20 10:22:23;;;;;;;;;1.00;1.00;;;;;;;;5023727;28;8889;-75
2022/09/20 10:24:59;;;;;;;;;2.00;2.00;;;;;;;;5025513;28;8877;-75
2022/09/20 10:27:39;;;;;;;;;0.00;0.00;;;;;;;;5023887;28;8889;-75
2022/09/20 10:30:12;;;;;;;;;2.00;0.00;;;;;;;;5024730;28;8866;-75
2022/09/20 10:32:49;;;;;;;;;0.00;0.00;;;;;;;;5024431;28;8858;-75
2022/09/20 10:35:24;;;;;;;;;0.00;0.00;;;;;;;;5023641;28;8963;-75
2022/09/20 10:38:06;;;;;;;;;0.20;0.00;;;;;;;;5025407;28;8883;-75
2022/09/20 10:43:40;;;;;;;;;1.00;1.00;;;;;;;;5024434;28;8846;-75
2022/09/20 10:46:17;;;;;;;;;0.60;0.60;;;;;;;;5017803;28;8854;-75
2022/09/20 10:48:50;;;;;;;;;1.60;1.60;;;;;;;;5021376;28;8925;-74
2022/09/20 10:51:25;;;;;;;;;2.00;2.00;;;;;;;;5024975;28;8878;-75
2022/09/20 10:54:01;;;;;;;;;1.20;1.20;;;;;;;;5028519;28;8889;-73
2022/09/20 10:56:33;;;;;;;;;1.00;1.00;;;;;;;;5011878;28;8858;-73
2022/09/20 10:59:41;;;;;;;;;1.00;1.00;;;;;;;;5021835;28;9355;-73
2022/09/20 11:02:22;;;;;;;;;3.00;2.00;;;;;;;;4950497;28;8824;-74
2022/09/20 11:05:25;;;;;;;;;1.00;1.00;;;;;;;;5011254;28;8854;-74
2022/09/20 11:08:02;;;;;;;;;1.50;1.00;;;;;;;;5020485;28;8846;-74
2022/09/20 11:10:36;;;;;;;;;1.00;1.00;;;;;;;;5016546;28;8899;-73
2022/09/20 11:13:07;;;;;;;;;2.00;2.00;;;;;;;;5022736;28;8959;-73
2022/09/20 11:15:40;;;;;;;;;0.00;0.00;;;;;;;;5022863;28;8882;-73
2022/09/20 11:18:12;;;;;;;;;1.00;0.25;;;;;;;;5022481;28;8853;-73
2022/09/20 11:20:44;;;;;;;;;1.00;1.00;;;;;;;;5023389;28;8874;-73
2022/09/20 11:23:16;;;;;;;;;2.00;0.60;;;;;;;;5023234;28;9750;-72
2022/09/20 11:25:50;;;;;;;;;2.80;1.00;;;;;;;;5025760;28;8882;-72
2022/09/20 11:28:21;;;;;;;;;0.20;0.20;;;;;;;;5022048;28;9635;-73
2022/09/20 11:30:56;;;;;;;;;2.40;0.00;;;;;;;;5022515;28;8817;-74
2022/09/20 11:33:27;;;;;;;;;0.40;0.40;;;;;;;;5023413;28;8892;-77
2022/09/20 11:35:58;;;;;;;;;1.00;1.00;;;;;;;;5022241;28;9636;-74
2022/09/20 11:38:30;;;;;;;;;1.00;1.00;;;;;;;;5028171;28;8900;-73
2022/09/20 11:41:04;;;;;;;;;0.20;0.20;;;;;;;;5022104;28;8870;-73
2022/09/20 11:43:34;;;;;;;;;1.00;1.00;;;;;;;;5023179;28;8893;-74
2022/09/20 11:46:04;;;;;;;;;1.00;1.00;;;;;;;;5021138;28;8888;-74
2022/09/20 11:48:35;;;;;;;;;3.20;2.00;;;;;;;;5023110;28;8874;-74
2022/09/20 11:51:31;;;;;;;;;3.00;1.60;;;;;;;;5021831;28;8877;-74
2022/09/20 11:54:07;;;;;;;;;1.80;1.00;;;;;;;;5016779;28;8854;-73
2022/09/20 11:56:36;;;;;;;;;1.00;1.00;;;;;;;;5022696;28;8866;-72
2022/09/20 11:59:07;;;;;;;;;1.00;1.00;;;;;;;;5022359;28;8880;-72
2022/09/20 12:01:36;;;;;;;;;1.00;1.00;;;;;;;;5022750;28;8818;-72
2022/09/20 12:04:09;;;;;;;;;1.00;1.00;;;;;;;;5023540;28;9641;-72
2022/09/20 12:06:38;;;;;;;;;1.00;1.00;;;;;;;;5022590;28;8878;-72
2022/09/20 12:09:17;;;;;;;;;0.00;0.00;;;;;;;;5023781;28;9013;-72
2022/09/20 12:11:46;;;;;;;;;1.00;1.00;;;;;;;;5022624;28;8854;-72
2022/09/20 12:14:19;;;;;;;;;1.00;1.00;;;;;;;;5022289;28;8897;-73
2022/09/20 12:16:48;;;;;;;;;0.80;0.60;;;;;;;;5003924;28;8861;-73
2022/09/20 12:19:37;;;;;;;;;5.00;1.50;;;;;;;;5021988;28;8986;-73
2022/09/20 12:22:27;;;;;;;;;3.25;1.75;;;;;;;;5023131;28;8866;-73
2022/09/20 12:25:27;;;;;;;;;1.00;1.00;;;;;;;;5010709;28;8931;-73
2022/09/20 12:27:59;;;;;;;;;1.00;1.00;;;;;;;;5022467;28;8862;-72
2022/09/20 12:30:28;;;;;;;;;1.50;1.50;;;;;;;;5024850;28;8796;-72
2022/09/20 12:32:58;;;;;;;;;2.00;2.00;;;;;;;;5023856;28;8908;-74
2022/09/20 12:36:14;;;;;;;;;2.00;2.00;;;;;;;;5022451;28;8855;-74
2022/09/20 12:39:04;;;;;;;;;2.00;2.00;;;;;;;;4961735;28;8942;-74
2022/09/20 12:41:46;;;;;;;;;3.00;1.00;;;;;;;;4955531;28;8893;-75
2022/09/20 12:44:30;;;;;;;;;1.50;1.50;;;;;;;;4992372;28;8886;-74
2022/09/20 12:46:59;;;;;;;;;2.25;1.50;;;;;;;;5021862;28;8893;-75
2022/09/20 12:55:50;;;;;;;;;1.25;1.25;;;;;;;;5020750;28;8874;-75
2022/09/20 12:58:27;;;;;;;;;2.00;2.00;;;;;;;;5021618;28;8908;-74
2022/09/20 13:01:42;;;;;;;;;1.00;1.00;;;;;;;;5022276;28;8771;-74
2022/09/20 13:04:50;;;;;;;;;3.00;3.00;;;;;;;;5014540;28;8882;-75
2022/09/20 13:07:46;;;;;;;;;0.40;0.40;;;;;;;;5020105;28;8886;-75
2022/09/20 13:10:23;;;;;;;;;2.00;2.00;;;;;;;;4990838;28;9624;-75
2022/09/20 13:12:54;;;;;;;;;2.60;2.00;;;;;;;;5025197;28;8866;-75
2022/09/20 13:15:22;;;;;;;;;2.40;2.40;;;;;;;;5025194;28;8870;-75
2022/09/20 13:17:55;;;;;;;;;2.40;2.40;;;;;;;;5025234;28;8846;-75
2022/09/20 13:20:25;;;;;;;;;3.00;3.00;;;;;;;;5039914;28;8897;-74
2022/09/20 13:22:54;;;;;;;;;1.80;1.80;;;;;;;;5045108;28;8862;-74
2022/09/20 13:25:22;;;;;;;;;3.00;3.00;;;;;;;;5026458;28;9081;-74
2022/09/20 13:27:54;;;;;;;;;2.00;2.00;;;;;;;;5045021;28;8858;-74
2022/09/20 13:30:25;;;;;;;;;5.20;5.20;;;;;;;;5043398;28;8989;-75
2022/09/20 13:32:54;;;;;;;;;4.20;3.00;;;;;;;;5043916;28;8889;-75
2022/09/20 13:35:22;;;;;;;;;2.00;2.00;;;;;;;;5045757;28;8879;-75
2022/09/20 13:37:55;;;;;;;;;3.00;1.40;;;;;;;;5045012;28;8866;-75
2022/09/20 13:40:24;;;;;;;;;2.00;2.00;;;;;;;;5044742;28;8862;-75
2022/09/20 13:42:56;;;;;;;;;2.00;2.00;;;;;;;;5044699;28;8979;-74
2022/09/20 13:45:23;;;;;;;;;2.00;2.00;;;;;;;;5044618;28;8867;-74
2022/09/20 13:47:55;;;;;;;;;2.00;1.80;;;;;;;;5027385;28;8844;-74
2022/09/20 13:50:24;;;;;;;;;1.40;1.40;;;;;;;;5043782;28;8905;-73
2022/09/20 13:52:53;;;;;;;;;2.00;2.00;;;;;;;;5045589;28;9686;-74
2022/09/20 13:55:32;;;;;;;;;2.00;2.00;;;;;;;;5045299;28;8883;-76
2022/09/20 13:58:03;;;;;;;;;1.20;1.20;;;;;;;;5044490;28;8860;-79
2022/09/20 14:00:31;;;;;;;;;2.00;2.00;;;;;;;;5043884;28;8802;-73
2022/09/20 14:02:59;;;;;;;;;2.20;1.40;;;;;;;;5044582;28;8897;-75
2022/09/20 14:05:29;;;;;;;;;1.40;1.40;;;;;;;;5043449;28;8854;-74
2022/09/20 14:07:57;;;;;;;;;1.80;1.80;;;;;;;;5026385;28;8886;-74
2022/09/20 14:10:31;;;;;;;;;2.00;2.00;;;;;;;;5044259;28;8879;-76
2022/09/20 14:13:00;;;;;;;;;2.40;1.60;;;;;;;;5044412;28;8983;-78
2022/09/20 14:15:33;;;;;;;;;2.00;2.00;;;;;;;;5044400;28;8894;-76
2022/09/20 14:18:05;;;;;;;;;1.60;1.60;;;;;;;;5051114;28;8878;-76
2022/09/20 14:20:33;;;;;;;;;1.20;1.20;;;;;;;;5044466;28;9004;-76
2022/09/20 14:23:00;;;;;;;;;3.40;3.40;;;;;;;;5046513;28;8858;-75
2022/09/20 14:25:28;;;;;;;;;2.40;2.40;;;;;;;;5042521;28;8898;-75
2022/09/20 14:28:17;;;;;;;;;3.00;3.00;;;;;;;;5044800;28;8862;-75
2022/09/20 14:30:46;;;;;;;;;3.00;3.00;;;;;;;;5033057;28;8787;-74
2022/09/20 14:33:18;;;;;;;;;8.00;6.60;;;;;;;;5025688;28;8870;-74
2022/09/20 14:35:50;;;;;;;;;4.00;2.60;;;;;;;;5041479;28;8863;-74
2022/09/20 14:38:18;;;;;;;;;2.00;2.00;;;;;;;;5042781;28;8870;-74
2022/09/20 14:40:47;;;;;;;;;1.60;1.00;;;;;;;;5042452;28;9659;-74
2022/09/20 14:43:27;;;;;;;;;3.00;3.00;;;;;;;;5042033;28;8866;-74
2022/09/20 14:45:56;;;;;;;;;2.00;2.00;;;;;;;;5043477;28;8851;-74
2022/09/20 14:48:39;;;;;;;;;2.00;2.00;;;;;;;;5042286;28;8850;-80
2022/09/20 14:51:20;;;;;;;;;2.20;2.20;;;;;;;;5043463;28;8893;-80
2022/09/20 14:53:49;;;;;;;;;2.00;2.00;;;;;;;;5042284;28;8835;-77
2022/09/20 14:56:25;;;;;;;;;2.40;2.40;;;;;;;;5042624;28;8882;-74
2022/09/20 14:59:07;;;;;;;;;1.80;1.80;;;;;;;;5035915;28;8868;-74
2022/09/20 15:01:36;;;;;;;;;3.60;2.00;;;;;;;;5039353;28;8807;-75
2022/09/20 15:04:09;;;;;;;;;2.00;2.00;;;;;;;;5039896;28;8867;-75
2022/09/20 15:06:38;;;;;;;;;2.60;2.60;;;;;;;;5042150;28;8873;-75
2022/09/20 15:09:06;;;;;;;;;3.00;3.00;;;;;;;;5039620;28;8975;-74
2022/09/20 15:11:34;;;;;;;;;3.40;2.00;;;;;;;;5023709;28;8890;-80
2022/09/20 15:14:01;;;;;;;;;1.00;1.00;;;;;;;;5023153;28;8893;-74
2022/09/20 15:16:29;;;;;;;;;1.60;1.60;;;;;;;;5041294;28;9008;-76
2022/09/20 15:18:57;;;;;;;;;2.40;2.00;;;;;;;;5040335;28;8910;-75
2022/09/20 15:21:25;;;;;;;;;1.60;1.60;;;;;;;;5039406;28;8947;-75
2022/09/20 15:23:53;;;;;;;;;1.60;1.60;;;;;;;;5042060;28;8877;-74
2022/09/20 15:26:21;;;;;;;;;3.00;1.00;;;;;;;;5032384;28;8873;-78
2022/09/20 15:28:49;;;;;;;;;2.00;2.00;;;;;;;;5042497;28;8991;-76
2022/09/20 15:31:18;;;;;;;;;2.00;2.00;;;;;;;;5037130;28;8956;-75
2022/09/20 15:33:45;;;;;;;;;2.00;2.00;;;;;;;;5025527;28;8898;-75
2022/09/20 15:36:12;;;;;;;;;2.00;2.00;;;;;;;;5034454;28;8943;-74
2022/09/20 15:38:41;;;;;;;;;3.00;1.40;;;;;;;;5042143;28;8882;-75
2022/09/20 15:41:08;;;;;;;;;2.00;2.00;;;;;;;;5021110;28;9113;-74
2022/09/20 15:43:36;;;;;;;;;1.20;1.20;;;;;;;;5042031;28;8889;-75
2022/09/20 15:46:17;;;;;;;;;1.00;1.00;;;;;;;;5041968;28;9009;-75
2022/09/20 15:48:45;;;;;;;;;1.00;1.00;;;;;;;;5040601;28;8893;-75
2022/09/20 15:51:14;;;;;;;;;1.00;1.00;;;;;;;;5043193;28;8854;-74
2022/09/20 15:53:44;;;;;;;;;1.60;1.60;;;;;;;;5046454;28;9672;-74
2022/09/20 15:56:17;;;;;;;;;1.20;0.60;;;;;;;;5040476;28;8866;-74